Wetterdaten: Woche 11.05.15 - 17.05.15 (KW20)
Datum Zeit Temp. Aussen +5cm Feuchte Auss Luftdruck Regen Sonnenschein Regendauer Solar Windben
11.05.2015 00:00 13,3 C 11,1 C 77 % 1023,3 hPa 0,0 l/m 0,00 h 0,00 h 0 W/m 9,0 km/h (2 Bft)
11.05.2015 01:00 13,1 C 11,1 C 79 % 1023,3 hPa 0,0 l/m 0,00 h 0,00 h 0 W/m 9,3 km/h (2 Bft)
11.05.2015 02:00 12,4 C 10,6 C 83 % 1023,2 hPa 0,0 l/m 0,00 h 0,00 h 0 W/m 7,8 km/h (2 Bft)
11.05.2015 03:00 11,8 C 10,6 C 86 % 1023,0 hPa 0,0 l/m 0,00 h 0,00 h 0 W/m 9,6 km/h (2 Bft)
11.05.2015 04:00 11,7 C 10,6 C 86 % 1022,6 hPa 0,0 l/m 0,00 h 0,00 h 0 W/m 9,9 km/h (2 Bft)
11.05.2015 05:00 11,5 C 10,6 C 86 % 1022,4 hPa 0,0 l/m 0,00 h 0,00 h 4 W/m 12,5 km/h (3 Bft)
11.05.2015 06:00 11,8 C 10,6 C 85 % 1022,1 hPa 0,0 l/m 0,00 h 0,00 h 32 W/m 16,1 km/h (3 Bft)
11.05.2015 07:00 12,4 C 11,1 C 84 % 1022,0 hPa 0,0 l/m 0,37 h 0,00 h 111 W/m 16,6 km/h (3 Bft)
11.05.2015 08:00 13,9 C 12,4 C 81 % 1022,0 hPa 0,0 l/m 1,00 h 0,00 h 235 W/m 18,3 km/h (3 Bft)
11.05.2015 09:00 16,3 C 13,9 C 75 % 1021,8 hPa 0,0 l/m 1,00 h 0,00 h 376 W/m 20,2 km/h (4 Bft)
11.05.2015 10:00 19,3 C 16,5 C 68 % 1021,5 hPa 0,0 l/m 0,97 h 0,00 h 506 W/m 19,4 km/h (3 Bft)
11.05.2015 11:00 21,3 C 18,3 C 64 % 1021,0 hPa 0,0 l/m 1,00 h 0,00 h 527 W/m 19,1 km/h (3 Bft)
11.05.2015 12:00 22,9 C 19,9 C 62 % 1020,6 hPa 0,0 l/m 0,93 h 0,00 h 480 W/m 17,7 km/h (3 Bft)
11.05.2015 13:00 24,6 C 21,9 C 58 % 1020,0 hPa 0,0 l/m 0,97 h 0,00 h 732 W/m 18,2 km/h (3 Bft)
11.05.2015 14:00 26,1 C 21,7 C 50 % 1019,5 hPa 0,0 l/m 0,67 h 0,00 h 587 W/m 19,2 km/h (3 Bft)
11.05.2015 15:00 27,7 C 22,6 C 46 % 1019,0 hPa 0,0 l/m 1,00 h 0,00 h 702 W/m 20,7 km/h (4 Bft)
11.05.2015 16:00 28,6 C 22,6 C 42 % 1018,4 hPa 0,0 l/m 1,00 h 0,00 h 616 W/m 17,8 km/h (3 Bft)
11.05.2015 17:00 28,4 C 22,1 C 39 % 1018,0 hPa 0,0 l/m 0,97 h 0,00 h 407 W/m 16,9 km/h (3 Bft)
11.05.2015 18:00 27,2 C 20,9 C 43 % 1018,1 hPa 0,0 l/m 0,90 h 0,00 h 270 W/m 14,6 km/h (3 Bft)
11.05.2015 19:00 26,0 C 19,7 C 46 % 1018,1 hPa 0,0 l/m 0,40 h 0,00 h 114 W/m 9,2 km/h (2 Bft)
11.05.2015 20:00 24,6 C 18,1 C 50 % 1018,0 hPa 0,0 l/m 0,20 h 0,00 h 41 W/m 6,1 km/h (2 Bft)
11.05.2015 21:00 22,4 C 16,3 C 57 % 1017,8 hPa 0,0 l/m 0,00 h 0,00 h 6 W/m 4,1 km/h (1 Bft)
11.05.2015 22:00 19,5 C 14,9 C 68 % 1018,0 hPa 0,0 l/m 0,00 h 0,00 h 0 W/m 4,1 km/h (1 Bft)
11.05.2015 23:00 17,7 C 14,2 C 73 % 1018,0 hPa 0,0 l/m 0,00 h 0,00 h 0 W/m 4,8 km/h (1 Bft)
12.05.2015 00:00 16,4 C 13,5 C 78 % 1018,0 hPa 0,0 l/m 0,00 h 0,00 h 0 W/m 2,1 km/h (1 Bft)
12.05.2015 01:00 15,5 C 13,6 C 82 % 1017,5 hPa 0,0 l/m 0,00 h 0,00 h 0 W/m 3,4 km/h (1 Bft)
12.05.2015 02:00 15,3 C 13,3 C 84 % 1016,9 hPa 0,0 l/m 0,00 h 0,00 h 0 W/m 2,0 km/h (1 Bft)
12.05.2015 03:00 15,0 C 13,3 C 86 % 1016,1 hPa 0,0 l/m 0,00 h 0,00 h 0 W/m 5,8 km/h (2 Bft)
12.05.2015 04:00 15,3 C 13,6 C 85 % 1015,5 hPa 0,0 l/m 0,00 h 0,00 h 0 W/m 6,9 km/h (2 Bft)
12.05.2015 05:00 15,3 C 13,3 C 84 % 1014,9 hPa 0,0 l/m 0,00 h 0,00 h 4 W/m 9,2 km/h (2 Bft)
12.05.2015 06:00 15,4 C 13,7 C 86 % 1014,6 hPa 0,0 l/m 0,00 h 0,00 h 36 W/m 4,8 km/h (1 Bft)
12.05.2015 07:00 15,8 C 14,4 C 87 % 1014,3 hPa 0,0 l/m 0,40 h 0,00 h 113 W/m 6,5 km/h (2 Bft)
12.05.2015 08:00 17,1 C 15,5 C 85 % 1014,2 hPa 0,0 l/m 0,93 h 0,00 h 217 W/m 7,1 km/h (2 Bft)
12.05.2015 09:00 18,6 C 16,7 C 75 % 1014,4 hPa 0,0 l/m 1,00 h 0,00 h 322 W/m 13,1 km/h (3 Bft)
12.05.2015 10:00 20,2 C 18,0 C 70 % 1014,5 hPa 0,0 l/m 1,00 h 0,00 h 453 W/m 14,4 km/h (3 Bft)
12.05.2015 11:00 21,8 C 19,3 C 63 % 1014,8 hPa 0,0 l/m 0,87 h 0,00 h 545 W/m 18,7 km/h (3 Bft)
12.05.2015 12:00 22,1 C 20,2 C 57 % 1015,0 hPa 0,0 l/m 0,65 h 0,00 h 470 W/m 22,9 km/h (4 Bft)
12.05.2015 13:00 23,1 C 21,6 C 51 % 1015,1 hPa 0,0 l/m 0,87 h 0,00 h 570 W/m 25,7 km/h (4 Bft)
12.05.2015 14:00 22,4 C 20,4 C 53 % 1015,3 hPa 0,0 l/m 0,40 h 0,00 h 415 W/m 24,5 km/h (4 Bft)
12.05.2015 15:00 21,8 C 19,8 C 53 % 1016,0 hPa 0,0 l/m 0,20 h 0,00 h 337 W/m 28,8 km/h (5 Bft)
12.05.2015 16:00 20,5 C 18,7 C 57 % 1016,7 hPa 0,0 l/m 0,23 h 0,00 h 309 W/m 28,5 km/h (4 Bft)
12.05.2015 17:00 20,8 C 18,2 C 53 % 1017,3 hPa 0,0 l/m 0,83 h 0,00 h 484 W/m 27,8 km/h (4 Bft)
12.05.2015 18:00 19,5 C 16,7 C 49 % 1017,9 hPa 0,0 l/m 0,27 h 0,00 h 192 W/m 28,9 km/h (5 Bft)
12.05.2015 19:00 18,0 C 15,4 C 54 % 1018,6 hPa 0,0 l/m 0,70 h 0,00 h 144 W/m 25,0 km/h (4 Bft)
12.05.2015 20:00 16,4 C 14,0 C 58 % 1019,2 hPa 0,0 l/m 0,10 h 0,00 h 35 W/m 20,4 km/h (4 Bft)
12.05.2015 21:00 14,4 C 12,8 C 65 % 1020,2 hPa 0,0 l/m 0,00 h 0,00 h 7 W/m 12,8 km/h (3 Bft)
12.05.2015 22:00 12,7 C 11,8 C 71 % 1021,0 hPa 0,0 l/m 0,00 h 0,00 h 0 W/m 6,0 km/h (2 Bft)
12.05.2015 23:00 10,9 C 10,5 C 79 % 1021,3 hPa 0,0 l/m 0,00 h 0,00 h 0 W/m 3,2 km/h (1 Bft)
13.05.2015 00:00 9,6 C 9,8 C 85 % 1021,6 hPa 0,0 l/m 0,00 h 0,00 h 0 W/m 4,0 km/h (1 Bft)
13.05.2015 01:00 8,7 C 9,1 C 88 % 1021,7 hPa 0,0 l/m 0,00 h 0,00 h 0 W/m 4,5 km/h (1 Bft)
13.05.2015 02:00 9,1 C 9,2 C 84 % 1021,5 hPa 0,0 l/m 0,00 h 0,00 h 0 W/m 7,7 km/h (2 Bft)
13.05.2015 03:00 9,2 C 8,9 C 84 % 1021,3 hPa 0,0 l/m 0,00 h 0,00 h 0 W/m 9,3 km/h (2 Bft)
13.05.2015 04:00 9,2 C 8,9 C 85 % 1021,0 hPa 0,0 l/m 0,00 h 0,00 h 0 W/m 12,7 km/h (3 Bft)
13.05.2015 05:00 9,0 C 8,9 C 87 % 1020,9 hPa 0,0 l/m 0,00 h 0,00 h 7 W/m 11,4 km/h (2 Bft)
13.05.2015 06:00 8,7 C 8,9 C 89 % 1021,2 hPa 0,0 l/m 0,20 h 0,00 h 44 W/m 11,1 km/h (2 Bft)
13.05.2015 07:00 9,6 C 9,2 C 88 % 1021,2 hPa 0,0 l/m 1,00 h 0,00 h 147 W/m 14,3 km/h (3 Bft)
13.05.2015 08:00 11,4 C 10,1 C 83 % 1021,1 hPa 0,0 l/m 1,00 h 0,00 h 309 W/m 15,1 km/h (3 Bft)
13.05.2015 09:00 14,1 C 12,0 C 75 % 1020,8 hPa 0,0 l/m 1,00 h 0,00 h 479 W/m 13,0 km/h (3 Bft)
13.05.2015 10:00 16,6 C 14,1 C 65 % 1020,1 hPa 0,0 l/m 1,00 h 0,00 h 633 W/m 12,6 km/h (3 Bft)
13.05.2015 11:00 17,8 C 15,4 C 57 % 1019,4 hPa 0,0 l/m 0,93 h 0,00 h 722 W/m 16,2 km/h (3 Bft)
13.05.2015 12:00 18,8 C 16,8 C 53 % 1018,7 hPa 0,0 l/m 0,53 h 0,00 h 747 W/m 17,2 km/h (3 Bft)
13.05.2015 13:00 21,2 C 19,7 C 48 % 1017,6 hPa 0,0 l/m 0,80 h 0,00 h 875 W/m 15,3 km/h (3 Bft)
13.05.2015 14:00 22,3 C 18,6 C 46 % 1016,4 hPa 0,0 l/m 1,00 h 0,00 h 843 W/m 11,3 km/h (2 Bft)
13.05.2015 15:00 22,1 C 18,5 C 44 % 1015,6 hPa 0,0 l/m 1,00 h 0,00 h 786 W/m 13,5 km/h (3 Bft)
13.05.2015 16:00 21,6 C 18,1 C 43 % 1014,9 hPa 0,0 l/m 0,63 h 0,00 h 508 W/m 11,6 km/h (2 Bft)
13.05.2015 17:00 20,7 C 17,2 C 45 % 1014,1 hPa 0,0 l/m 0,80 h 0,00 h 446 W/m 13,8 km/h (3 Bft)
13.05.2015 18:00 19,7 C 16,5 C 47 % 1013,8 hPa 0,0 l/m 0,37 h 0,00 h 193 W/m 13,3 km/h (3 Bft)
13.05.2015 19:00 18,6 C 15,7 C 50 % 1013,4 hPa 0,0 l/m 0,83 h 0,00 h 164 W/m 18,5 km/h (3 Bft)
13.05.2015 20:00 17,2 C 14,4 C 57 % 1013,3 hPa 0,0 l/m 0,03 h 0,00 h 41 W/m 19,8 km/h (4 Bft)
13.05.2015 21:00 14,7 C 12,7 C 65 % 1013,9 hPa 0,0 l/m 0,00 h 0,00 h 8 W/m 25,1 km/h (4 Bft)
13.05.2015 22:00 13,1 C 11,5 C 67 % 1014,4 hPa 0,0 l/m 0,00 h 0,00 h 0 W/m 19,1 km/h (3 Bft)
13.05.2015 23:00 11,9 C 10,7 C 71 % 1014,8 hPa 0,0 l/m 0,00 h 0,00 h 0 W/m 13,4 km/h (3 Bft)
14.05.2015 00:00 10,9 C 9,8 C 74 % 1014,9 hPa 0,0 l/m 0,00 h 0,00 h 0 W/m 7,8 km/h (2 Bft)
14.05.2015 01:00 9,8 C 9,0 C 76 % 1014,8 hPa 0,0 l/m 0,00 h 0,00 h 0 W/m 7,2 km/h (2 Bft)
14.05.2015 02:00 8,7 C 8,5 C 80 % 1014,8 hPa 0,0 l/m 0,00 h 0,00 h 0 W/m 8,3 km/h (2 Bft)
14.05.2015 03:00 7,9 C 7,9 C 83 % 1014,9 hPa 0,0 l/m 0,00 h 0,00 h 0 W/m 7,5 km/h (2 Bft)
14.05.2015 04:00 7,1 C 7,4 C 85 % 1015,1 hPa 0,0 l/m 0,00 h 0,00 h 0 W/m 5,7 km/h (1 Bft)
14.05.2015 05:00 6,5 C 6,9 C 87 % 1015,3 hPa 0,0 l/m 0,00 h 0,00 h 8 W/m 5,3 km/h (1 Bft)
14.05.2015 06:00 6,0 C 6,8 C 88 % 1015,2 hPa 0,0 l/m 0,80 h 0,00 h 48 W/m 4,0 km/h (1 Bft)
14.05.2015 07:00 6,8 C 7,5 C 90 % 1015,3 hPa 0,0 l/m 1,00 h 0,00 h 155 W/m 8,6 km/h (2 Bft)
14.05.2015 08:00 8,8 C 8,2 C 78 % 1015,3 hPa 0,0 l/m 1,00 h 0,00 h 326 W/m 17,1 km/h (3 Bft)
14.05.2015 09:00 10,9 C 10,1 C 69 % 1015,1 hPa 0,0 l/m 1,00 h 0,00 h 502 W/m 15,5 km/h (3 Bft)
14.05.2015 10:00 12,5 C 11,5 C 65 % 1014,7 hPa 0,0 l/m 1,00 h 0,00 h 638 W/m 11,9 km/h (2 Bft)
14.05.2015 11:00 14,0 C 12,4 C 61 % 1014,2 hPa 0,0 l/m 1,00 h 0,00 h 758 W/m 12,3 km/h (3 Bft)
14.05.2015 12:00 15,6 C 14,5 C 56 % 1013,8 hPa 0,0 l/m 0,97 h 0,00 h 821 W/m 14,0 km/h (3 Bft)
14.05.2015 13:00 16,9 C 17,2 C 52 % 1013,0 hPa 0,0 l/m 0,93 h 0,00 h 746 W/m 14,2 km/h (3 Bft)
14.05.2015 14:00 18,2 C 16,6 C 48 % 1012,2 hPa 0,0 l/m 1,00 h 0,00 h 872 W/m 13,7 km/h (3 Bft)
14.05.2015 15:00 19,8 C 16,7 C 45 % 1011,2 hPa 0,0 l/m 1,00 h 0,00 h 732 W/m 15,2 km/h (3 Bft)
14.05.2015 16:00 19,3 C 16,9 C 45 % 1010,2 hPa 0,0 l/m 0,77 h 0,00 h 505 W/m 16,8 km/h (3 Bft)
14.05.2015 17:00 19,3 C 16,9 C 46 % 1009,3 hPa 0,0 l/m 1,00 h 0,00 h 469 W/m 17,5 km/h (3 Bft)
14.05.2015 18:00 18,4 C 16,0 C 49 % 1009,4 hPa 0,0 l/m 0,20 h 0,00 h 163 W/m 15,1 km/h (3 Bft)
14.05.2015 19:00 17,5 C 14,9 C 51 % 1009,5 hPa 0,0 l/m 0,00 h 0,00 h 63 W/m 11,6 km/h (2 Bft)
14.05.2015 20:00 16,7 C 12,9 C 59 % 1009,9 hPa 0,2 l/m 0,00 h 0,80 h 13 W/m 6,4 km/h (2 Bft)
14.05.2015 21:00 15,1 C 12,2 C 68 % 1010,1 hPa 0,0 l/m 0,00 h 0,10 h 5 W/m 9,9 km/h (2 Bft)
14.05.2015 22:00 14,3 C 11,8 C 66 % 1010,1 hPa 0,0 l/m 0,00 h 0,00 h 0 W/m 13,2 km/h (3 Bft)
14.05.2015 23:00 13,7 C 11,7 C 66 % 1010,1 hPa 0,0 l/m 0,00 h 0,00 h 0 W/m 16,0 km/h (3 Bft)
15.05.2015 00:00 13,4 C 11,4 C 66 % 1010,4 hPa 0,0 l/m 0,00 h 0,03 h 0 W/m 17,4 km/h (3 Bft)
15.05.2015 01:00 13,0 C 11,1 C 67 % 1010,5 hPa 0,0 l/m 0,00 h 0,10 h 0 W/m 17,2 km/h (3 Bft)
15.05.2015 02:00 12,6 C 11,0 C 69 % 1010,7 hPa 0,0 l/m 0,00 h 0,00 h 0 W/m 14,9 km/h (3 Bft)
15.05.2015 03:00 12,0 C 10,6 C 71 % 1010,7 hPa 0,0 l/m 0,00 h 0,00 h 0 W/m 17,3 km/h (3 Bft)
15.05.2015 04:00 11,3 C 10,0 C 73 % 1011,3 hPa 0,0 l/m 0,00 h 0,00 h 0 W/m 18,7 km/h (3 Bft)
15.05.2015 05:00 10,8 C 9,8 C 75 % 1012,2 hPa 0,0 l/m 0,00 h 0,00 h 0 W/m 15,0 km/h (3 Bft)
15.05.2015 06:00 9,7 C 9,1 C 80 % 1012,8 hPa 0,0 l/m 0,00 h 0,00 h 19 W/m 19,2 km/h (3 Bft)
15.05.2015 07:00 9,1 C 8,9 C 84 % 1014,0 hPa 0,0 l/m 0,00 h 0,00 h 34 W/m 16,6 km/h (3 Bft)
15.05.2015 08:00 8,8 C 9,0 C 84 % 1014,8 hPa 0,0 l/m 0,00 h 0,00 h 95 W/m 18,9 km/h (3 Bft)
15.05.2015 09:00 9,9 C 10,5 C 81 % 1015,5 hPa 0,0 l/m 0,63 h 0,00 h 297 W/m 20,9 km/h (4 Bft)
15.05.2015 10:00 12,5 C 12,3 C 73 % 1015,9 hPa 0,0 l/m 1,00 h 0,00 h 610 W/m 24,0 km/h (4 Bft)
15.05.2015 11:00 14,7 C 13,7 C 65 % 1016,5 hPa 0,0 l/m 1,00 h 0,00 h 724 W/m 24,1 km/h (4 Bft)
15.05.2015 12:00 16,0 C 15,5 C 61 % 1016,9 hPa 0,0 l/m 0,93 h 0,00 h 762 W/m 23,0 km/h (4 Bft)
15.05.2015 13:00 17,0 C 17,6 C 59 % 1017,5 hPa 0,0 l/m 1,00 h 0,00 h 835 W/m 20,1 km/h (4 Bft)
15.05.2015 14:00 17,5 C 15,6 C 55 % 1017,7 hPa 0,0 l/m 1,00 h 0,00 h 818 W/m 19,2 km/h (3 Bft)
15.05.2015 15:00 18,0 C 15,9 C 53 % 1017,8 hPa 0,0 l/m 1,00 h 0,00 h 762 W/m 20,5 km/h (4 Bft)
15.05.2015 16:00 16,9 C 15,6 C 55 % 1018,1 hPa 0,0 l/m 1,00 h 0,00 h 663 W/m 23,0 km/h (4 Bft)
15.05.2015 17:00 16,3 C 14,5 C 54 % 1018,4 hPa 0,0 l/m 1,00 h 0,00 h 525 W/m 20,9 km/h (4 Bft)
15.05.2015 18:00 16,0 C 13,9 C 54 % 1018,7 hPa 0,0 l/m 0,97 h 0,00 h 363 W/m 18,4 km/h (3 Bft)
15.05.2015 19:00 15,5 C 13,1 C 54 % 1019,1 hPa 0,0 l/m 0,90 h 0,00 h 185 W/m 13,5 km/h (3 Bft)
15.05.2015 20:00 14,6 C 12,4 C 58 % 1019,3 hPa 0,0 l/m 0,03 h 0,00 h 41 W/m 7,7 km/h (2 Bft)
15.05.2015 21:00 12,9 C 10,9 C 66 % 1020,0 hPa 0,0 l/m 0,00 h 0,00 h 7 W/m 5,9 km/h (2 Bft)
15.05.2015 22:00 11,6 C 10,2 C 72 % 1020,6 hPa 0,0 l/m 0,00 h 0,00 h 0 W/m 7,6 km/h (2 Bft)
15.05.2015 23:00 10,2 C 9,2 C 78 % 1021,2 hPa 0,0 l/m 0,00 h 0,00 h 0 W/m 2,9 km/h (1 Bft)
16.05.2015 00:00 9,1 C 8,4 C 81 % 1021,3 hPa 0,0 l/m 0,00 h 0,00 h 0 W/m 2,6 km/h (1 Bft)
16.05.2015 01:00 8,0 C 7,6 C 85 % 1021,8 hPa 0,0 l/m 0,00 h 0,00 h 0 W/m 5,3 km/h (1 Bft)
16.05.2015 02:00 7,3 C 7,2 C 86 % 1022,0 hPa 0,0 l/m 0,00 h 0,00 h 0 W/m 4,8 km/h (1 Bft)
16.05.2015 03:00 6,9 C 7,2 C 89 % 1021,9 hPa 0,0 l/m 0,00 h 0,00 h 0 W/m 6,7 km/h (2 Bft)
16.05.2015 04:00 6,5 C 6,9 C 91 % 1021,7 hPa 0,0 l/m 0,00 h 0,00 h 0 W/m 6,5 km/h (2 Bft)
16.05.2015 05:00 6,3 C 6,7 C 92 % 1021,7 hPa 0,0 l/m 0,00 h 0,00 h 6 W/m 9,8 km/h (2 Bft)
16.05.2015 06:00 6,7 C 7,3 C 91 % 1021,8 hPa 0,0 l/m 0,00 h 0,00 h 28 W/m 10,2 km/h (2 Bft)
16.05.2015 07:00 7,8 C 8,1 C 88 % 1021,8 hPa 0,0 l/m 0,00 h 0,00 h 86 W/m 12,0 km/h (2 Bft)
16.05.2015 08:00 9,4 C 9,3 C 84 % 1021,8 hPa 0,0 l/m 0,10 h 0,10 h 153 W/m 14,3 km/h (3 Bft)
16.05.2015 09:00 10,4 C 10,0 C 82 % 1021,9 hPa 0,0 l/m 0,00 h 0,17 h 121 W/m 17,3 km/h (3 Bft)
16.05.2015 10:00 10,8 C 10,0 C 84 % 1021,7 hPa 0,0 l/m 0,00 h 0,33 h 99 W/m 16,3 km/h (3 Bft)
16.05.2015 11:00 11,3 C 10,5 C 85 % 1021,5 hPa 0,0 l/m 0,00 h 0,23 h 132 W/m 16,2 km/h (3 Bft)
16.05.2015 12:00 12,4 C 11,5 C 83 % 1021,5 hPa 0,0 l/m 0,00 h 0,00 h 143 W/m 16,3 km/h (3 Bft)
16.05.2015 13:00 12,7 C 11,5 C 85 % 1021,7 hPa 0,0 l/m 0,00 h 0,13 h 115 W/m 22,6 km/h (4 Bft)
16.05.2015 14:00 12,4 C 11,7 C 93 % 1021,9 hPa 0,0 l/m 0,00 h 0,13 h 166 W/m 18,1 km/h (3 Bft)
16.05.2015 15:00 12,4 C 11,7 C 96 % 1022,0 hPa 0,4 l/m 0,00 h 0,67 h 122 W/m 18,9 km/h (3 Bft)
16.05.2015 16:00 12,5 C 11,7 C 96 % 1022,2 hPa 0,0 l/m 0,00 h 0,00 h 102 W/m 19,4 km/h (3 Bft)
16.05.2015 17:00 12,7 C 11,7 C 96 % 1022,7 hPa 0,4 l/m 0,00 h 0,33 h 68 W/m 16,7 km/h (3 Bft)
16.05.2015 18:00 12,5 C 11,7 C 96 % 1023,1 hPa 0,0 l/m 0,00 h 0,10 h 99 W/m 8,7 km/h (2 Bft)
16.05.2015 19:00 12,8 C 11,7 C 96 % 1023,4 hPa 0,0 l/m 0,07 h 0,00 h 49 W/m 8,5 km/h (2 Bft)
16.05.2015 20:00 12,7 C 11,4 C 95 % 1024,0 hPa 0,0 l/m 0,20 h 0,00 h 40 W/m 10,6 km/h (2 Bft)
16.05.2015 21:00 11,6 C 10,1 C 88 % 1024,6 hPa 0,0 l/m 0,03 h 0,00 h 10 W/m 9,6 km/h (2 Bft)
16.05.2015 22:00 10,6 C 8,9 C 85 % 1025,1 hPa 0,0 l/m 0,00 h 0,00 h 0 W/m 4,3 km/h (1 Bft)
16.05.2015 23:00 8,9 C 7,9 C 86 % 1025,6 hPa 0,0 l/m 0,00 h 0,00 h 0 W/m 3,9 km/h (1 Bft)
17.05.2015 00:00 7,7 C 7,2 C 89 % 1025,8 hPa 0,0 l/m 0,00 h 0,00 h 0 W/m 4,6 km/h (1 Bft)
17.05.2015 01:00 6,7 C 6,7 C 91 % 1025,7 hPa 0,0 l/m 0,00 h 0,00 h 0 W/m 4,0 km/h (1 Bft)
17.05.2015 02:00 6,3 C 7,1 C 92 % 1025,7 hPa 0,0 l/m 0,00 h 0,00 h 0 W/m 4,1 km/h (1 Bft)
17.05.2015 03:00 6,5 C 7,4 C 94 % 1025,6 hPa 0,0 l/m 0,00 h 0,00 h 0 W/m 4,5 km/h (1 Bft)
17.05.2015 04:00 7,0 C 7,8 C 95 % 1025,5 hPa 0,0 l/m 0,00 h 0,00 h 0 W/m 4,3 km/h (1 Bft)
17.05.2015 05:00 7,4 C 7,8 C 95 % 1025,4 hPa 0,0 l/m 0,00 h 0,00 h 7 W/m 3,6 km/h (1 Bft)
17.05.2015 06:00 7,6 C 7,9 C 95 % 1025,4 hPa 0,0 l/m 0,00 h 0,00 h 31 W/m 3,8 km/h (1 Bft)
17.05.2015 07:00 8,2 C 8,5 C 95 % 1025,4 hPa 0,0 l/m 0,27 h 0,00 h 107 W/m 5,3 km/h (1 Bft)
17.05.2015 08:00 9,6 C 9,0 C 92 % 1025,4 hPa 0,0 l/m 1,00 h 0,00 h 332 W/m 6,7 km/h (2 Bft)
17.05.2015 09:00 12,7 C 11,0 C 78 % 1025,4 hPa 0,0 l/m 0,93 h 0,00 h 307 W/m 9,7 km/h (2 Bft)
17.05.2015 10:00 15,2 C 12,7 C 65 % 1025,2 hPa 0,0 l/m 0,97 h 0,00 h 521 W/m 13,8 km/h (3 Bft)
17.05.2015 11:00 17,0 C 14,3 C 64 % 1024,8 hPa 0,0 l/m 0,60 h 0,00 h 560 W/m 16,8 km/h (3 Bft)
17.05.2015 12:00 16,4 C 13,9 C 64 % 1024,2 hPa 0,0 l/m 0,00 h 0,00 h 227 W/m 15,4 km/h (3 Bft)
17.05.2015 13:00 16,0 C 14,5 C 68 % 1023,8 hPa 0,0 l/m 0,17 h 0,00 h 325 W/m 12,2 km/h (2 Bft)
17.05.2015 14:00 18,6 C 16,3 C 60 % 1023,1 hPa 0,0 l/m 0,77 h 0,00 h 648 W/m 16,7 km/h (3 Bft)
17.05.2015 15:00 19,6 C 17,0 C 54 % 1022,5 hPa 0,0 l/m 0,57 h 0,00 h 543 W/m 20,3 km/h (4 Bft)
17.05.2015 16:00 19,6 C 17,0 C 52 % 1021,8 hPa 0,0 l/m 0,70 h 0,00 h 475 W/m 17,7 km/h (3 Bft)
17.05.2015 17:00 19,7 C 16,9 C 49 % 1021,4 hPa 0,0 l/m 1,00 h 0,00 h 423 W/m 18,0 km/h (3 Bft)
17.05.2015 18:00 18,8 C 15,8 C 49 % 1021,1 hPa 0,0 l/m 0,73 h 0,00 h 280 W/m 17,3 km/h (3 Bft)
17.05.2015 19:00 18,0 C 14,8 C 51 % 1020,9 hPa 0,0 l/m 0,63 h 0,00 h 145 W/m 13,7 km/h (3 Bft)
17.05.2015 20:00 16,7 C 13,5 C 55 % 1020,7 hPa 0,0 l/m 0,13 h 0,00 h 41 W/m 13,1 km/h (3 Bft)
17.05.2015 21:00 14,4 C 11,7 C 60 % 1020,7 hPa 0,0 l/m 0,00 h 0,00 h 9 W/m 7,8 km/h (2 Bft)
17.05.2015 22:00 12,5 C 10,1 C 65 % 1020,7 hPa 0,0 l/m 0,00 h 0,00 h 0 W/m 5,2 km/h (1 Bft)
17.05.2015 23:00 10,7 C 8,8 C 72 % 1020,1 hPa 0,0 l/m 0,00 h 0,00 h 0 W/m 0,6 km/h (0 Bft)
Min-Datum _ 14.05.15 14.05.15 11.05.15 14.05.15 - - - - 11.05.15
_ Min-Zeit 06:18 06:16 17:06 17:42 - - - - 22:10
Minimum _ 5,9 C 6,1 C 37 % 1009,1 hPa - - - - 0,0 km/h (0 Bft)
Max-Datum _ 11.05.15 11.05.15 16.05.15 16.05.15 16.05.15 11.05.15 14.05.15 17.05.15 12.05.15
_ Max-Zeit 17:02 13:32 16:14 23:28 15:20 07:30 20:08 13:40 15:08
Maximum _ 29,1 C 23,9 C 97 % 1025,8 hPa 0,4 l/m 0,03 h 0,03 h 1023 W/m 46,0 km/h
W-NW (6 Bft)
Durchschnitt _ 14,5 C 12,9 C 71 % 1018,6 hPa #1,0 l/m #61:57 h #3:14 h 317 W/m 13,1 km/h (3 Bft)
© 2015 W. Hausmann